Terminal Aerodrome Forecast
Issued by NWS

Home | Current Version | Previous Version | Text Only | Print | Product List | Glossary On
Versions: 1 2 3 4 5 6 7 8 9 10 11 12 13 14 15 16 17 18 19 20 21 22 23 24 25
651
FTUS44 KOUN 240528
TAFHBR
TAF
KHBR 240528Z 2406/2506 16015KT P6SM OVC010
      TEMPO 2406/2410 5SM -TSRA BR OVC015CB
     FM241500 19016G25KT P6SM BKN030 PROB30 2421/2501 3SM TSRA BR
      OVC030CB
     FM250100 16013KT P6SM OVC020=

USA.gov is the U.S. government's official web portal to all federal, state and local government web resources and services.